createdAt,value
2023-02-28T00:08:35.684Z,10.17
2023-02-28T00:18:40.762Z,12.17
2023-02-28T00:28:47.865Z,10.07
2023-02-28T00:38:58.110Z,8.20
2023-02-28T00:49:04.621Z,10.40
2023-02-28T00:59:09.798Z,12.87
2023-02-28T01:09:14.722Z,13.67
2023-02-28T01:19:18.145Z,11.60
2023-02-28T01:29:23.364Z,8.20
2023-02-28T01:39:28.309Z,9.03
2023-02-28T01:49:32.775Z,8.57
2023-02-28T01:59:50.776Z,8.10
2023-02-28T02:10:17.293Z,8.47
2023-02-28T02:20:32.002Z,7.07
2023-02-28T02:30:48.893Z,7.23
2023-02-28T02:41:00.023Z,6.03
2023-02-28T02:51:05.478Z,7.10
2023-02-28T03:01:08.781Z,8.47
2023-02-28T03:11:16.084Z,8.30
2023-02-28T03:21:29.006Z,8.30
2023-02-28T03:31:40.386Z,8.00
2023-02-28T03:41:53.300Z,14.37
2023-02-28T03:52:03.106Z,14.33
2023-02-28T04:02:08.435Z,13.10
2023-02-28T04:12:10.683Z,11.63
2023-02-28T04:22:13.272Z,10.37
2023-02-28T04:32:20.205Z,9.13
2023-02-28T04:42:24.872Z,10.90
2023-02-28T04:52:28.576Z,12.93
2023-02-28T05:02:31.546Z,7.30
2023-02-28T05:12:33.802Z,9.20
2023-02-28T05:22:38.930Z,8.73
2023-02-28T05:32:46.110Z,9.57
2023-02-28T05:42:52.748Z,8.60
2023-02-28T05:52:57.079Z,12.60
2023-02-28T06:03:03.311Z,11.63
2023-02-28T06:13:07.939Z,8.80
2023-02-28T06:23:10.786Z,14.97
2023-02-28T06:33:13.033Z,14.07
2023-02-28T06:43:18.651Z,14.57
2023-02-28T06:53:23.213Z,9.27
2023-02-28T07:03:28.014Z,7.80
2023-02-28T07:13:34.900Z,8.77
2023-02-28T07:23:40.221Z,10.07
2023-02-28T07:33:45.155Z,6.73
2023-02-28T07:43:48.201Z,6.83
2023-02-28T07:53:55.133Z,7.73
2023-02-28T08:04:02.153Z,9.70
2023-02-28T08:14:08.858Z,6.13
2023-02-28T08:24:15.313Z,11.30
2023-02-28T08:34:17.824Z,11.37
2023-02-28T08:44:20.012Z,9.47
2023-02-28T08:54:31.874Z,6.47
2023-02-28T09:04:35.081Z,9.90
2023-02-28T09:14:45.603Z,9.73
2023-02-28T09:24:48.127Z,11.13
2023-02-28T09:34:51.449Z,9.93
2023-02-28T09:44:55.991Z,11.33
2023-02-28T09:55:23.529Z,9.77
2023-02-28T10:05:36.264Z,12.07
2023-02-28T10:15:40.787Z,8.00
2023-02-28T10:25:49.354Z,11.93
2023-02-28T10:35:54.542Z,11.27
2023-02-28T10:46:04.022Z,12.73
2023-02-28T10:56:33.814Z,10.13
2023-02-28T11:06:36.314Z,11.40
2023-02-28T11:16:41.162Z,11.73
2023-02-28T11:26:50.038Z,13.13
2023-02-28T11:36:57.822Z,13.30
2023-02-28T11:47:11.424Z,12.73
2023-02-28T11:57:46.973Z,14.87
2023-02-28T12:08:01.084Z,12.83
2023-02-28T12:18:08.586Z,14.60
2023-02-28T12:28:15.912Z,14.53
2023-02-28T12:38:24.006Z,13.53
2023-02-28T12:48:47.476Z,11.17
2023-02-28T12:59:02.064Z,11.57
2023-02-28T13:09:16.752Z,13.23
2023-02-28T13:19:21.680Z,13.53
2023-02-28T13:29:34.740Z,17.57
2023-02-28T13:39:37.220Z,12.07
2023-02-28T13:49:42.232Z,15.20
2023-02-28T14:00:01.696Z,15.27
2023-02-28T14:10:22.834Z,12.87
2023-02-28T14:20:32.623Z,13.50
2023-02-28T14:31:02.937Z,14.93
2023-02-28T14:41:08.136Z,11.83
2023-02-28T14:51:10.378Z,14.80
2023-02-28T15:01:14.631Z,12.10
2023-02-28T15:11:24.097Z,14.30
2023-02-28T15:21:26.963Z,11.87
2023-02-28T15:31:56.111Z,12.10
2023-02-28T15:42:15.726Z,15.03
2023-02-28T15:52:27.980Z,13.13
2023-02-28T16:02:35.685Z,12.43
2023-02-28T16:12:40.828Z,13.33
2023-02-28T16:22:43.974Z,15.13
2023-02-28T16:32:46.842Z,15.23
2023-02-28T16:42:55.054Z,20.03
2023-02-28T16:53:02.340Z,17.13
2023-02-28T17:03:07.621Z,19.30
2023-02-28T17:13:15.160Z,17.87
2023-02-28T17:23:22.288Z,23.37
2023-02-28T17:33:26.963Z,21.43
2023-02-28T17:43:30.391Z,19.60
2023-02-28T17:53:35.091Z,19.30
2023-02-28T18:03:37.313Z,16.60
2023-02-28T18:13:40.766Z,16.20
2023-02-28T18:23:48.515Z,17.93
2023-02-28T18:33:52.290Z,19.23
2023-02-28T18:43:55.269Z,20.23
2023-02-28T18:54:02.251Z,23.13
2023-02-28T19:04:07.114Z,23.50
2023-02-28T19:14:12.268Z,21.00
2023-02-28T19:24:18.481Z,23.57
2023-02-28T19:34:22.605Z,24.80
2023-02-28T19:44:32.857Z,23.17
2023-02-28T19:54:36.958Z,25.00
2023-02-28T20:04:42.136Z,23.63
2023-02-28T20:14:44.832Z,21.80
2023-02-28T20:24:49.244Z,19.73
2023-02-28T20:34:53.735Z,18.40
2023-02-28T20:44:55.957Z,19.93
2023-02-28T20:54:58.142Z,23.33
2023-02-28T21:05:04.160Z,25.83
2023-02-28T21:15:08.061Z,27.50
2023-02-28T21:25:12.465Z,26.00
2023-02-28T21:35:18.970Z,30.33
2023-02-28T21:45:22.743Z,34.33
2023-02-28T21:55:26.656Z,30.43
2023-02-28T22:05:30.449Z,37.90
2023-02-28T22:15:37.501Z,43.13
2023-02-28T22:25:45.786Z,41.37
2023-02-28T22:35:47.960Z,36.23
2023-02-28T22:45:54.403Z,40.20
2023-02-28T22:55:59.500Z,28.70
2023-02-28T23:06:02.876Z,41.33
2023-02-28T23:16:09.486Z,42.33
2023-02-28T23:26:16.990Z,38.00
2023-02-28T23:36:23.152Z,40.03
2023-02-28T23:46:27.625Z,45.30
2023-02-28T23:56:34.471Z,44.77
